Decoded Metar for VYYY (YANGON in MYANMAR) (IATA:RGN) | Meteo·Mobile Aviation Weather
aviador You're here:

VYYY Decoded Metar

YANGON in MYANMAR
Report Time2019-10-22 13:00:00
UTC Time2019-10-22 13:27:26
Flight Rules mvfr MVFR
Wind200° at 04 kt
W.Decomp.*RWY 21: 4.0 kt HW 0.6 kt LCW
Visibility7000 m
Phenomena:N/A
Clouds:Few 018 Hf
Expected CloudBase > 1,200 ft AGL from Temp-Dew spread
CeilingNone
Temp29°C (ISA +14)
Dew Point26°C (84% RH)
Heat Index35.6°C
QNH1008 hPa
Density Alt2,349 ft
Elevation108 ft
Report Wrong Elevation
Raw Report
VYYY 221300Z 20004KT 7000 FEW018 29/26 Q1008 NOSIG=

Extra information for VYYY:More info

Metar Taf Metar & Taf Last 4 Metars F.Rules Stats Wind Profile Meteogram Temp Stats Airport Information Weather charts Add Link Nearby VenuesMetar ALERT Operation Metar Decoded Social comments